createdAt,value
2019-01-20T00:00:51.107Z,94592.72
2019-01-20T00:15:51.024Z,94573.14
2019-01-20T00:30:51.898Z,94576.13
2019-01-20T00:45:51.267Z,94578.36
2019-01-20T01:00:51.714Z,94588.71
2019-01-20T01:15:53.228Z,94576.12
2019-01-20T01:30:53.805Z,94557.41
2019-01-20T01:45:57.188Z,94541.33
2019-01-20T02:00:51.701Z,94526.28
2019-01-20T02:15:52.282Z,94522.01
2019-01-20T02:30:55.226Z,94519.91
2019-01-20T02:45:51.206Z,94520.23
2019-01-20T03:00:54.168Z,94502.26
2019-01-20T03:15:59.198Z,94488.85
2019-01-20T03:30:55.119Z,94483.47
2019-01-20T03:45:54.006Z,94485.53
2019-01-20T04:00:58.002Z,94465.45
2019-01-20T04:15:52.141Z,94464.42
2019-01-20T04:30:55.715Z,94462.27
2019-01-20T04:45:53.425Z,94449.75
2019-01-20T05:00:57.351Z,94428.70
2019-01-20T05:15:57.991Z,94431.54
2019-01-20T05:30:54.675Z,94411.61
2019-01-20T05:45:52.790Z,94422.28
2019-01-20T06:00:54.687Z,94434.50
2019-01-20T06:15:58.948Z,94434.41
2019-01-20T06:30:51.280Z,94428.41
2019-01-20T06:45:51.289Z,94432.66
2019-01-20T07:00:52.328Z,94423.16
2019-01-20T07:15:51.744Z,94434.28
2019-01-20T07:30:52.081Z,94438.91
2019-01-20T08:00:52.995Z,94447.70
2019-01-20T08:15:51.409Z,94453.20
2019-01-20T08:30:50.749Z,94440.20
2019-01-20T09:00:51.131Z,94440.10
2019-01-20T09:15:50.596Z,94439.48
2019-01-20T09:30:51.566Z,94434.42
2019-01-20T09:45:51.011Z,94412.06
2019-01-20T10:00:50.497Z,94404.86
2019-01-20T10:15:52.372Z,94384.60
2019-01-20T10:30:51.172Z,94364.55
2019-01-20T10:45:51.051Z,94360.64
2019-01-20T11:00:51.017Z,94325.47
2019-01-20T11:15:51.044Z,94307.95
2019-01-20T11:30:50.442Z,94292.84
2019-01-20T11:45:51.391Z,94283.56
2019-01-20T12:00:51.558Z,94270.63
2019-01-20T12:15:51.430Z,94259.99
2019-01-20T12:30:50.601Z,94242.89
2019-01-20T12:45:50.643Z,94256.77
2019-01-20T13:00:50.580Z,94248.67
2019-01-20T13:15:50.660Z,94251.48
2019-01-20T13:30:53.747Z,94244.66
2019-01-20T13:45:53.305Z,94237.35
2019-01-20T14:00:51.652Z,94234.00
2019-01-20T14:15:51.101Z,94232.40
2019-01-20T14:30:52.996Z,94254.29
2019-01-20T14:45:50.983Z,94262.40
2019-01-20T15:00:54.037Z,94263.22
2019-01-20T15:15:54.179Z,94265.09
2019-01-20T15:30:51.892Z,94251.32
2019-01-20T15:45:52.084Z,94255.74
2019-01-20T16:00:55.460Z,94277.63
2019-01-20T16:15:53.759Z,94274.22
2019-01-20T16:30:57.612Z,94248.46
2019-01-20T16:45:57.402Z,94260.03
2019-01-20T17:00:51.725Z,94309.63
2019-01-20T17:15:51.254Z,94326.52
2019-01-20T17:30:51.925Z,94335.36
2019-01-20T17:45:53.367Z,94329.39
2019-01-20T18:00:58.735Z,94320.30
2019-01-20T18:15:54.685Z,94339.05
2019-01-20T18:30:51.224Z,94363.50
2019-01-20T18:45:53.393Z,94369.23
2019-01-20T19:00:53.575Z,94366.14
